createdAt,value
2018-08-11T00:01:28.243Z,21.80
2018-08-11T00:04:16.451Z,22.00
2018-08-11T00:06:57.584Z,22.40
2018-08-11T00:09:40.200Z,22.50
2018-08-11T00:12:18.561Z,21.60
2018-08-11T00:15:00.765Z,22.40
2018-08-11T00:17:55.499Z,22.80
2018-08-11T00:20:39.696Z,22.70
2018-08-11T00:23:12.243Z,22.50
2018-08-11T00:26:04.838Z,21.10
2018-08-11T00:28:57.473Z,20.40
2018-08-11T00:31:34.972Z,19.80
2018-08-11T00:34:16.736Z,19.40
2018-08-11T00:36:51.231Z,19.00
2018-08-11T00:42:08.096Z,18.10
2018-08-11T00:44:53.811Z,17.80
2018-08-11T00:47:40.399Z,18.50
2018-08-11T00:50:39.004Z,18.70
2018-08-11T00:53:21.247Z,18.30
2018-08-11T00:56:04.610Z,18.00
2018-08-11T00:58:50.886Z,17.90
2018-08-11T01:01:30.328Z,17.70
2018-08-11T01:04:09.986Z,17.60
2018-08-11T01:06:41.851Z,17.40
2018-08-11T01:09:15.339Z,17.20
2018-08-11T01:11:51.118Z,17.20
2018-08-11T01:14:27.365Z,17.00
2018-08-11T01:17:00.297Z,17.00
2018-08-11T01:19:33.604Z,16.70
2018-08-11T01:22:08.467Z,16.60
2018-08-11T01:24:40.469Z,17.00
2018-08-11T01:27:10.949Z,17.40
2018-08-11T01:29:42.145Z,17.30
2018-08-11T01:32:13.033Z,17.20
2018-08-11T01:34:44.415Z,16.90
2018-08-11T01:37:15.918Z,16.70
2018-08-11T01:39:56.191Z,16.60
2018-08-11T01:42:26.371Z,16.50
2018-08-11T01:45:00.169Z,16.40
2018-08-11T01:47:31.750Z,16.20
2018-08-11T01:50:05.943Z,16.10
2018-08-11T01:52:40.027Z,16.10
2018-08-11T01:55:18.327Z,16.20
2018-08-11T01:57:49.984Z,16.10
2018-08-11T02:00:24.386Z,16.10
2018-08-11T02:02:54.593Z,16.20
2018-08-11T02:05:32.101Z,16.30
2018-08-11T02:08:12.000Z,16.20
2018-08-11T02:10:48.916Z,16.30
2018-08-11T02:13:24.012Z,16.30
2018-08-11T02:16:00.564Z,16.20
2018-08-11T02:18:35.356Z,16.40
2018-08-11T02:21:10.788Z,16.80
2018-08-11T02:23:40.398Z,16.50
2018-08-11T02:26:11.799Z,16.40
2018-08-11T02:28:44.306Z,16.50
2018-08-11T02:38:20.479Z,16.40
2018-08-11T02:41:01.426Z,16.50
2018-08-11T02:43:34.096Z,16.50
2018-08-11T02:46:11.720Z,16.40
2018-08-11T02:48:43.352Z,16.30
2018-08-11T02:51:15.199Z,16.10
2018-08-11T02:53:46.333Z,15.90
2018-08-11T02:56:18.205Z,15.80
2018-08-11T02:58:48.423Z,15.70
2018-08-11T03:01:20.351Z,15.70
2018-08-11T03:03:51.264Z,15.60
2018-08-11T03:06:25.856Z,15.60
2018-08-11T03:09:00.666Z,15.50
2018-08-11T03:11:31.350Z,15.40
2018-08-11T03:14:02.737Z,15.40
2018-08-11T03:16:33.337Z,15.30
2018-08-11T03:19:09.708Z,15.30
2018-08-11T03:21:41.279Z,15.20
2018-08-11T03:24:13.081Z,15.20
2018-08-11T03:26:52.288Z,15.20
2018-08-11T03:29:23.957Z,15.30
2018-08-11T03:31:56.399Z,15.30
2018-08-11T03:34:35.290Z,15.30
2018-08-11T03:37:23.121Z,15.70
2018-08-11T03:40:00.171Z,15.40
2018-08-11T03:42:30.464Z,15.50
2018-08-11T03:47:45.860Z,15.90
2018-08-11T03:50:17.277Z,15.90
2018-08-11T03:52:50.621Z,15.80
2018-08-11T03:55:24.721Z,15.70
2018-08-11T03:57:57.653Z,15.50
2018-08-11T04:00:34.368Z,15.40
2018-08-11T04:03:05.681Z,15.40
2018-08-11T04:05:36.654Z,15.40
2018-08-11T04:08:09.116Z,15.30
2018-08-11T04:10:46.566Z,15.20
2018-08-11T04:13:25.471Z,15.20
2018-08-11T04:15:59.587Z,15.10
2018-08-11T04:21:20.580Z,15.10
2018-08-11T04:23:56.422Z,15.10
2018-08-11T04:26:31.714Z,15.10
2018-08-11T04:31:53.326Z,15.10
2018-08-11T04:34:25.035Z,15.40
2018-08-11T04:36:57.023Z,15.50
2018-08-11T04:46:11.011Z,15.50
2018-08-11T05:12:17.908Z,17.10
2018-08-11T05:15:21.321Z,17.20
2018-08-11T07:02:18.880Z,24.80
2018-08-11T07:33:52.263Z,28.60
2018-08-11T07:52:29.164Z,27.90
2018-08-11T08:34:19.679Z,28.50
2018-08-11T13:27:44.252Z,26.00
2018-08-11T14:02:10.412Z,25.50
2018-08-11T14:10:31.949Z,25.90
2018-08-11T14:16:47.643Z,26.00
2018-08-11T15:32:12.852Z,25.50
2018-08-11T15:35:35.178Z,25.40
2018-08-11T20:27:47.213Z,22.70
2018-08-11T20:53:48.327Z,20.50
2018-08-11T20:56:46.927Z,20.20
2018-08-11T21:06:53.194Z,19.90
2018-08-11T21:09:49.011Z,19.90
2018-08-11T21:15:27.555Z,19.80
2018-08-11T21:24:39.209Z,19.80
2018-08-11T21:30:32.960Z,19.60
2018-08-11T22:07:37.128Z,18.90
2018-08-11T22:13:21.571Z,18.70
2018-08-11T22:29:34.020Z,18.60
2018-08-11T22:51:02.757Z,18.20
2018-08-11T23:03:40.249Z,18.20
2018-08-11T23:06:51.548Z,18.00
2018-08-11T23:09:40.467Z,18.00
2018-08-11T23:23:06.816Z,18.10
2018-08-11T23:40:33.531Z,17.90
2018-08-11T23:49:03.252Z,18.00
2018-08-11T23:52:00.617Z,17.90
2018-08-11T23:54:51.477Z,17.80
2018-08-11T23:57:36.241Z,17.90
